sensor_id;sensor_type;location;lat;lon;timestamp;pressure;altitude;pressure_sealevel;temperature;humidity
5298;BME280;14738;42.668;23.250;2023-04-03T00:00:06;48402.22;;;-141.90;76.10
5298;BME280;14738;42.668;23.250;2023-04-03T00:02:32;48416.09;;;-141.90;75.11
5298;BME280;14738;42.668;23.250;2023-04-03T00:04:58;48402.22;;;-141.90;74.96
5298;BME280;14738;42.668;23.250;2023-04-03T00:07:23;48428.03;;;-141.90;73.80
5298;BME280;14738;42.668;23.250;2023-04-03T00:09:48;48424.06;;;-141.90;74.86
5298;BME280;14738;42.668;23.250;2023-04-03T00:12:14;48406.19;;;-141.90;79.77
5298;BME280;14738;42.668;23.250;2023-04-03T00:14:40;48420.09;;;-141.90;80.30
5298;BME280;14738;42.668;23.250;2023-04-03T00:17:06;48433.97;;;-141.90;84.89
5298;BME280;14738;42.668;23.250;2023-04-03T00:19:31;48418.09;;;-141.90;90.69
5298;BME280;14738;42.668;23.250;2023-04-03T00:21:57;48412.13;;;-141.90;88.51
5298;BME280;14738;42.668;23.250;2023-04-03T00:24:22;48410.16;;;-141.90;94.55
5298;BME280;14738;42.668;23.250;2023-04-03T00:26:47;48437.94;;;-141.90;100.00
5298;BME280;14738;42.668;23.250;2023-04-03T00:29:13;48406.19;;;-141.90;96.69
5298;BME280;14738;42.668;23.250;2023-04-03T00:31:39;48406.19;;;-141.90;95.72
5298;BME280;14738;42.668;23.250;2023-04-03T00:34:05;48408.16;;;-141.90;90.01
5298;BME280;14738;42.668;23.250;2023-04-03T00:36:31;48412.13;;;-141.90;86.92
5298;BME280;14738;42.668;23.250;2023-04-03T00:38:56;48408.16;;;-141.90;85.13
5298;BME280;14738;42.668;23.250;2023-04-03T00:41:21;48430.00;;;-141.90;82.70
5298;BME280;14738;42.668;23.250;2023-04-03T00:43:47;48398.25;;;-141.90;86.75
5298;BME280;14738;42.668;23.250;2023-04-03T00:46:12;48426.03;;;-141.90;89.86
5298;BME280;14738;42.668;23.250;2023-04-03T00:48:41;48410.16;;;-141.90;90.56
5298;BME280;14738;42.668;23.250;2023-04-03T00:51:12;48410.16;;;-141.90;83.00
5298;BME280;14738;42.668;23.250;2023-04-03T00:53:41;48449.84;;;-141.90;88.72
5298;BME280;14738;42.668;23.250;2023-04-03T00:56:10;48433.97;;;-141.90;91.75
5298;BME280;14738;42.668;23.250;2023-04-03T00:58:41;48461.78;;;-141.90;91.61
5298;BME280;14738;42.668;23.250;2023-04-03T01:01:12;48457.81;;;-141.90;90.07
5298;BME280;14738;42.668;23.250;2023-04-03T01:03:40;48457.81;;;-141.90;84.59
5298;BME280;14738;42.668;23.250;2023-04-03T01:06:05;48418.09;;;-141.90;82.47
5298;BME280;14738;42.668;23.250;2023-04-03T01:08:31;48402.22;;;-141.90;79.85
5298;BME280;14738;42.668;23.250;2023-04-03T01:10:57;48433.97;;;-141.90;78.40
5298;BME280;14738;42.668;23.250;2023-04-03T01:13:31;48432.00;;;-141.90;76.52
5298;BME280;14738;42.668;23.250;2023-04-03T01:16:01;48426.03;;;-141.90;77.89
5298;BME280;14738;42.668;23.250;2023-04-03T01:18:27;48410.16;;;-141.90;79.76
5298;BME280;14738;42.668;23.250;2023-04-03T01:24:15;48406.19;;;-141.90;88.81
5298;BME280;14738;42.668;23.250;2023-04-03T01:26:45;48404.19;;;-141.90;90.52
5298;BME280;14738;42.668;23.250;2023-04-03T01:29:10;48426.03;;;-141.90;89.28
5298;BME280;14738;42.668;23.250;2023-04-03T01:31:50;48453.81;;;-141.90;90.00
5298;BME280;14738;42.668;23.250;2023-04-03T01:34:16;48428.03;;;-141.90;93.82
5298;BME280;14738;42.668;23.250;2023-04-03T01:36:41;48469.72;;;-141.90;99.73
5298;BME280;14738;42.668;23.250;2023-04-03T01:39:07;48433.97;;;-141.90;98.72
5298;BME280;14738;42.668;23.250;2023-04-03T01:41:32;48426.03;;;-141.90;96.79
5298;BME280;14738;42.668;23.250;2023-04-03T01:43:58;48443.91;;;-141.90;100.00
5298;BME280;14738;42.668;23.250;2023-04-03T01:46:23;48430.00;;;-141.90;100.00
5298;BME280;14738;42.668;23.250;2023-04-03T01:48:49;48433.97;;;-141.90;100.00
5298;BME280;14738;42.668;23.250;2023-04-03T01:51:14;48443.91;;;-141.90;100.00
5298;BME280;14738;42.668;23.250;2023-04-03T01:53:40;48443.91;;;-141.90;100.00
5298;BME280;14738;42.668;23.250;2023-04-03T01:56:06;48445.88;;;-141.90;100.00
5298;BME280;14738;42.668;23.250;2023-04-03T01:58:32;48455.81;;;-141.90;100.00
5298;BME280;14738;42.668;23.250;2023-04-03T02:00:57;48422.06;;;-141.90;100.00
5298;BME280;14738;42.668;23.250;2023-04-03T02:03:22;48447.88;;;-141.90;100.00
5298;BME280;14738;42.668;23.250;2023-04-03T02:05:49;48422.06;;;-141.90;100.00
5298;BME280;14738;42.668;23.250;2023-04-03T02:08:14;48430.00;;;-141.90;100.00
5298;BME280;14738;42.668;23.250;2023-04-03T02:10:43;48449.84;;;-141.90;100.00
5298;BME280;14738;42.668;23.250;2023-04-03T02:13:08;48414.13;;;-141.90;100.00
5298;BME280;14738;42.668;23.250;2023-04-03T02:15:38;48426.03;;;-141.90;100.00
5298;BME280;14738;42.668;23.250;2023-04-03T02:18:03;48447.88;;;-141.90;100.00
5298;BME280;14738;42.668;23.250;2023-04-03T02:20:28;48437.94;;;-141.90;100.00
5298;BME280;14738;42.668;23.250;2023-04-03T02:22:54;48441.91;;;-141.90;100.00
5298;BME280;14738;42.668;23.250;2023-04-03T02:25:19;48445.88;;;-141.90;100.00
5298;BME280;14738;42.668;23.250;2023-04-03T02:27:45;48455.81;;;-141.90;100.00
5298;BME280;14738;42.668;23.250;2023-04-03T02:30:11;48453.81;;;-141.90;100.00
5298;BME280;14738;42.668;23.250;2023-04-03T02:32:36;48447.88;;;-141.90;100.00
5298;BME280;14738;42.668;23.250;2023-04-03T02:35:02;48416.09;;;-141.90;100.00
5298;BME280;14738;42.668;23.250;2023-04-03T02:37:27;48453.81;;;-141.90;100.00
5298;BME280;14738;42.668;23.250;2023-04-03T02:39:52;48449.84;;;-141.90;100.00
5298;BME280;14738;42.668;23.250;2023-04-03T02:42:18;48445.88;;;-141.90;100.00
5298;BME280;14738;42.668;23.250;2023-04-03T02:44:43;48445.88;;;-141.90;100.00
5298;BME280;14738;42.668;23.250;2023-04-03T02:47:09;48432.00;;;-141.90;100.00
5298;BME280;14738;42.668;23.250;2023-04-03T02:49:35;48467.72;;;-141.90;100.00
5298;BME280;14738;42.668;23.250;2023-04-03T02:52:00;48433.97;;;-141.90;100.00
5298;BME280;14738;42.668;23.250;2023-04-03T02:54:26;48418.09;;;-141.90;100.00
5298;BME280;14738;42.668;23.250;2023-04-03T02:56:54;48443.91;;;-141.90;100.00
5298;BME280;14738;42.668;23.250;2023-04-03T02:59:19;48443.91;;;-141.90;100.00
5298;BME280;14738;42.668;23.250;2023-04-03T03:01:45;48433.97;;;-141.90;100.00
5298;BME280;14738;42.668;23.250;2023-04-03T03:04:11;48449.84;;;-141.90;100.00
5298;BME280;14738;42.668;23.250;2023-04-03T03:06:36;48432.00;;;-141.90;100.00
5298;BME280;14738;42.668;23.250;2023-04-03T03:09:02;48453.81;;;-141.90;100.00
5298;BME280;14738;42.668;23.250;2023-04-03T03:11:29;48435.97;;;-141.90;100.00
5298;BME280;14738;42.668;23.250;2023-04-03T03:13:55;48457.81;;;-141.90;100.00
5298;BME280;14738;42.668;23.250;2023-04-03T03:16:21;48477.66;;;-141.90;100.00
5298;BME280;14738;42.668;23.250;2023-04-03T03:18:46;48457.81;;;-141.90;100.00
5298;BME280;14738;42.668;23.250;2023-04-03T03:21:12;48469.72;;;-141.90;100.00
5298;BME280;14738;42.668;23.250;2023-04-03T03:23:37;48451.84;;;-141.90;100.00
5298;BME280;14738;42.668;23.250;2023-04-03T03:26:05;48477.66;;;-141.90;100.00
5298;BME280;14738;42.668;23.250;2023-04-03T03:28:31;48445.88;;;-141.90;100.00
5298;BME280;14738;42.668;23.250;2023-04-03T03:30:57;48437.94;;;-141.90;100.00
5298;BME280;14738;42.668;23.250;2023-04-03T03:33:23;48481.63;;;-141.90;100.00
5298;BME280;14738;42.668;23.250;2023-04-03T03:35:48;48455.81;;;-141.90;100.00
5298;BME280;14738;42.668;23.250;2023-04-03T03:38:14;48469.72;;;-141.90;100.00
5298;BME280;14738;42.668;23.250;2023-04-03T03:40:39;48479.63;;;-141.90;100.00
5298;BME280;14738;42.668;23.250;2023-04-03T03:43:05;48441.91;;;-141.90;100.00
5298;BME280;14738;42.668;23.250;2023-04-03T03:45:30;48469.72;;;-141.90;100.00
5298;BME280;14738;42.668;23.250;2023-04-03T03:47:56;48453.81;;;-141.90;100.00
5298;BME280;14738;42.668;23.250;2023-04-03T03:50:22;48435.97;;;-141.90;100.00
5298;BME280;14738;42.668;23.250;2023-04-03T03:52:47;48432.00;;;-141.90;100.00
5298;BME280;14738;42.668;23.250;2023-04-03T03:55:12;48481.63;;;-141.90;100.00
5298;BME280;14738;42.668;23.250;2023-04-03T03:57:38;48445.88;;;-141.90;100.00
5298;BME280;14738;42.668;23.250;2023-04-03T04:00:04;48433.97;;;-141.90;100.00
5298;BME280;14738;42.668;23.250;2023-04-03T04:02:30;48489.56;;;-141.90;100.00
5298;BME280;14738;42.668;23.250;2023-04-03T04:04:55;48459.78;;;-141.90;100.00
5298;BME280;14738;42.668;23.250;2023-04-03T04:07:21;48471.69;;;-141.90;100.00
5298;BME280;14738;42.668;23.250;2023-04-03T04:09:46;48457.81;;;-141.90;100.00
5298;BME280;14738;42.668;23.250;2023-04-03T04:12:12;48455.81;;;-141.90;100.00
5298;BME280;14738;42.668;23.250;2023-04-03T04:14:37;48457.81;;;-141.90;100.00
5298;BME280;14738;42.668;23.250;2023-04-03T04:17:03;48463.75;;;-141.90;100.00
5298;BME280;14738;42.668;23.250;2023-04-03T04:19:28;48455.81;;;-141.90;100.00
5298;BME280;14738;42.668;23.250;2023-04-03T04:21:54;48432.00;;;-141.90;100.00
5298;BME280;14738;42.668;23.250;2023-04-03T04:24:20;48463.75;;;-141.90;100.00
5298;BME280;14738;42.668;23.250;2023-04-03T04:26:45;48453.81;;;-141.90;100.00
5298;BME280;14738;42.668;23.250;2023-04-03T04:29:11;48451.84;;;-141.90;100.00
5298;BME280;14738;42.668;23.250;2023-04-03T04:31:36;48445.88;;;-141.90;100.00
5298;BME280;14738;42.668;23.250;2023-04-03T04:34:02;48461.78;;;-141.90;100.00
5298;BME280;14738;42.668;23.250;2023-04-03T04:36:27;48420.09;;;-141.90;100.00
5298;BME280;14738;42.668;23.250;2023-04-03T04:38:53;48447.88;;;-141.90;100.00
5298;BME280;14738;42.668;23.250;2023-04-03T04:41:21;48457.81;;;-141.90;100.00
5298;BME280;14738;42.668;23.250;2023-04-03T04:43:50;48455.81;;;-141.90;100.00
5298;BME280;14738;42.668;23.250;2023-04-03T04:46:16;48455.81;;;-141.90;100.00
5298;BME280;14738;42.668;23.250;2023-04-03T04:48:42;48435.97;;;-141.90;100.00
5298;BME280;14738;42.668;23.250;2023-04-03T04:51:08;48449.84;;;-141.90;100.00
5298;BME280;14738;42.668;23.250;2023-04-03T04:53:34;48430.00;;;-141.90;100.00
5298;BME280;14738;42.668;23.250;2023-04-03T04:55:59;48465.75;;;-141.90;100.00
5298;BME280;14738;42.668;23.250;2023-04-03T04:58:25;48418.09;;;-141.90;100.00
5298;BME280;14738;42.668;23.250;2023-04-03T05:00:59;48433.97;;;-141.90;100.00
5298;BME280;14738;42.668;23.250;2023-04-03T05:03:25;48449.84;;;-141.90;100.00
5298;BME280;14738;42.668;23.250;2023-04-03T05:05:50;48435.97;;;-141.90;100.00
5298;BME280;14738;42.668;23.250;2023-04-03T05:08:15;48430.00;;;-141.90;100.00
5298;BME280;14738;42.668;23.250;2023-04-03T05:10:41;48402.22;;;-141.90;100.00
5298;BME280;14738;42.668;23.250;2023-04-03T05:13:07;48426.03;;;-141.90;100.00
5298;BME280;14738;42.668;23.250;2023-04-03T05:15:32;48418.09;;;-141.90;100.00
5298;BME280;14738;42.668;23.250;2023-04-03T05:17:58;48453.81;;;-141.90;100.00
5298;BME280;14738;42.668;23.250;2023-04-03T05:20:24;48426.03;;;-141.90;100.00
5298;BME280;14738;42.668;23.250;2023-04-03T05:22:50;48416.09;;;-141.90;100.00
5298;BME280;14738;42.668;23.250;2023-04-03T05:25:16;48443.91;;;-141.90;100.00
5298;BME280;14738;42.668;23.250;2023-04-03T05:27:41;48354.56;;;-141.90;100.00
5298;BME280;14738;42.668;23.250;2023-04-03T05:30:07;48435.97;;;-141.90;100.00
5298;BME280;14738;42.668;23.250;2023-04-03T05:32:33;48406.19;;;-141.90;100.00
5298;BME280;14738;42.668;23.250;2023-04-03T05:34:58;48430.00;;;-141.90;100.00
5298;BME280;14738;42.668;23.250;2023-04-03T05:37:24;48406.19;;;-141.90;100.00
5298;BME280;14738;42.668;23.250;2023-04-03T05:39:49;48406.19;;;-141.90;100.00
5298;BME280;14738;42.668;23.250;2023-04-03T05:42:15;48414.13;;;-141.90;100.00
5298;BME280;14738;42.668;23.250;2023-04-03T05:44:41;48410.16;;;-141.90;100.00
5298;BME280;14738;42.668;23.250;2023-04-03T05:47:06;48457.81;;;-141.90;100.00
5298;BME280;14738;42.668;23.250;2023-04-03T05:49:32;48394.28;;;-141.90;100.00
5298;BME280;14738;42.668;23.250;2023-04-03T05:51:57;48418.09;;;-141.90;100.00
5298;BME280;14738;42.668;23.250;2023-04-03T05:54:28;48402.22;;;-141.90;100.00
5298;BME280;14738;42.668;23.250;2023-04-03T05:56:54;48422.06;;;-141.90;100.00
5298;BME280;14738;42.668;23.250;2023-04-03T05:59:20;48414.13;;;-141.90;100.00
5298;BME280;14738;42.668;23.250;2023-04-03T06:01:46;48416.09;;;-141.90;100.00
5298;BME280;14738;42.668;23.250;2023-04-03T06:04:12;48433.97;;;-141.90;100.00
5298;BME280;14738;42.668;23.250;2023-04-03T06:06:56;48370.44;;;-141.90;100.00
5298;BME280;14738;42.668;23.250;2023-04-03T06:09:26;48424.06;;;-141.90;100.00
5298;BME280;14738;42.668;23.250;2023-04-03T06:11:52;48398.25;;;-141.90;100.00
5298;BME280;14738;42.668;23.250;2023-04-03T06:14:18;48424.06;;;-141.90;100.00
5298;BME280;14738;42.668;23.250;2023-04-03T06:16:44;48398.25;;;-141.90;100.00
5298;BME280;14738;42.668;23.250;2023-04-03T06:19:11;48412.13;;;-141.90;100.00
5298;BME280;14738;42.668;23.250;2023-04-03T06:21:37;48370.44;;;-141.90;100.00
5298;BME280;14738;42.668;23.250;2023-04-03T06:24:04;48398.25;;;-141.90;100.00
5298;BME280;14738;42.668;23.250;2023-04-03T06:26:29;48412.13;;;-141.90;100.00
5298;BME280;14738;42.668;23.250;2023-04-03T06:28:55;48370.44;;;-141.90;100.00
5298;BME280;14738;42.668;23.250;2023-04-03T06:31:23;48406.19;;;-141.90;100.00
5298;BME280;14738;42.668;23.250;2023-04-03T06:33:49;48390.31;;;-141.90;100.00
5298;BME280;14738;42.668;23.250;2023-04-03T06:36:15;48406.19;;;-141.90;100.00
5298;BME280;14738;42.668;23.250;2023-04-03T06:38:44;48406.19;;;-141.90;100.00
5298;BME280;14738;42.668;23.250;2023-04-03T06:41:10;48374.41;;;-141.90;100.00
5298;BME280;14738;42.668;23.250;2023-04-03T06:43:36;48380.38;;;-141.90;100.00
5298;BME280;14738;42.668;23.250;2023-04-03T06:46:01;48390.31;;;-141.90;45.19
5298;BME280;14738;42.668;23.250;2023-04-03T06:48:27;48406.19;;;-141.90;45.16
5298;BME280;14738;42.668;23.250;2023-04-03T06:50:53;48390.31;;;-141.90;44.65
5298;BME280;14738;42.668;23.250;2023-04-03T06:53:19;48370.44;;;-141.90;44.48
5298;BME280;14738;42.668;23.250;2023-04-03T06:55:46;48378.38;;;-141.90;44.32
5298;BME280;14738;42.668;23.250;2023-04-03T06:58:12;48362.50;;;-141.90;45.58
5298;BME280;14738;42.668;23.250;2023-04-03T07:00:37;48374.41;;;-141.90;44.81
5298;BME280;14738;42.668;23.250;2023-04-03T07:03:03;48410.16;;;-141.90;44.84
5298;BME280;14738;42.668;23.250;2023-04-03T07:05:29;48406.19;;;-141.90;45.05
5298;BME280;14738;42.668;23.250;2023-04-03T07:07:54;48366.47;;;-141.90;44.89
5298;BME280;14738;42.668;23.250;2023-04-03T07:10:20;48378.38;;;-141.90;44.41
5298;BME280;14738;42.668;23.250;2023-04-03T07:12:45;48316.84;;;-141.90;44.91
5298;BME280;14738;42.668;23.250;2023-04-03T07:15:11;48390.31;;;-141.90;43.96
5298;BME280;14738;42.668;23.250;2023-04-03T07:17:38;48386.34;;;-141.90;43.50
5298;BME280;14738;42.668;23.250;2023-04-03T07:20:04;48406.19;;;-141.90;43.38
5298;BME280;14738;42.668;23.250;2023-04-03T07:22:30;48398.25;;;-141.90;43.90
5298;BME280;14738;42.668;23.250;2023-04-03T07:24:55;48390.31;;;-141.90;43.29
5298;BME280;14738;42.668;23.250;2023-04-03T07:27:21;48390.31;;;-141.90;42.49
5298;BME280;14738;42.668;23.250;2023-04-03T07:29:46;48386.34;;;-141.90;42.80
5298;BME280;14738;42.668;23.250;2023-04-03T07:32:14;48406.19;;;-141.90;42.64
5298;BME280;14738;42.668;23.250;2023-04-03T07:34:40;48390.31;;;-141.90;42.00
5298;BME280;14738;42.668;23.250;2023-04-03T07:37:06;48388.31;;;-141.90;40.75
5298;BME280;14738;42.668;23.250;2023-04-03T07:39:32;48378.38;;;-141.90;41.02
5298;BME280;14738;42.668;23.250;2023-04-03T07:41:58;48422.06;;;-141.90;40.67
5298;BME280;14738;42.668;23.250;2023-04-03T07:44:24;48340.66;;;-141.90;39.28
5298;BME280;14738;42.668;23.250;2023-04-03T07:46:49;48398.25;;;-141.90;39.06
5298;BME280;14738;42.668;23.250;2023-04-03T07:49:16;48404.19;;;-141.90;38.92
5298;BME280;14738;42.668;23.250;2023-04-03T07:51:43;48402.22;;;-141.90;39.21
5298;BME280;14738;42.668;23.250;2023-04-03T07:54:09;48390.31;;;-141.90;38.67
5298;BME280;14738;42.668;23.250;2023-04-03T07:56:34;48386.34;;;-141.90;39.97
5298;BME280;14738;42.668;23.250;2023-04-03T07:59:00;48358.53;;;-141.90;38.01
5298;BME280;14738;42.668;23.250;2023-04-03T08:01:25;48368.47;;;-141.90;38.40
5298;BME280;14738;42.668;23.250;2023-04-03T08:03:51;48330.75;;;-141.90;39.24
5298;BME280;14738;42.668;23.250;2023-04-03T08:06:16;48388.31;;;-141.90;39.98
5298;BME280;14738;42.668;23.250;2023-04-03T08:08:42;48392.28;;;-141.90;40.23
5298;BME280;14738;42.668;23.250;2023-04-03T08:11:07;48378.38;;;-141.90;41.26
5298;BME280;14738;42.668;23.250;2023-04-03T08:13:34;48394.28;;;-141.90;41.23
5298;BME280;14738;42.668;23.250;2023-04-03T08:16:16;48370.44;;;-141.90;41.39
5298;BME280;14738;42.668;23.250;2023-04-03T08:18:42;48358.53;;;-141.90;41.62
5298;BME280;14738;42.668;23.250;2023-04-03T08:21:10;48400.22;;;-141.90;42.06
5298;BME280;14738;42.668;23.250;2023-04-03T08:23:36;48368.47;;;-141.90;41.51
5298;BME280;14738;42.668;23.250;2023-04-03T08:26:08;48370.44;;;-141.90;40.99
5298;BME280;14738;42.668;23.250;2023-04-03T08:28:34;48384.34;;;-141.90;40.50
5298;BME280;14738;42.668;23.250;2023-04-03T08:31:05;48410.16;;;-141.90;40.20
5298;BME280;14738;42.668;23.250;2023-04-03T08:33:32;48366.47;;;-141.90;40.16
5298;BME280;14738;42.668;23.250;2023-04-03T08:35:58;48374.41;;;-141.90;39.40
5298;BME280;14738;42.668;23.250;2023-04-03T08:38:24;48374.41;;;-141.90;40.26
5298;BME280;14738;42.668;23.250;2023-04-03T08:47:10;48386.34;;;-141.90;40.66
5298;BME280;14738;42.668;23.250;2023-04-03T08:49:41;48386.34;;;-141.90;39.40
5298;BME280;14738;42.668;23.250;2023-04-03T08:52:18;48382.34;;;-141.90;39.66
5298;BME280;14738;42.668;23.250;2023-04-03T08:54:53;48386.34;;;-141.90;39.18
5298;BME280;14738;42.668;23.250;2023-04-03T08:57:30;48372.44;;;-141.90;39.96
5298;BME280;14738;42.668;23.250;2023-04-03T09:00:18;48406.19;;;-141.90;40.20
5298;BME280;14738;42.668;23.250;2023-04-03T09:02:55;48404.19;;;-141.90;39.18
5298;BME280;14738;42.668;23.250;2023-04-03T09:06:14;48390.31;;;-141.90;39.23
5298;BME280;14738;42.668;23.250;2023-04-03T09:10:39;48354.56;;;-141.90;38.22
5298;BME280;14738;42.668;23.250;2023-04-03T09:15:38;48398.25;;;-141.90;38.45
5298;BME280;14738;42.668;23.250;2023-04-03T09:18:13;48374.41;;;-141.90;38.19
5298;BME280;14738;42.668;23.250;2023-04-03T09:23:30;48418.09;;;-141.90;38.55
5298;BME280;14738;42.668;23.250;2023-04-03T09:26:05;48384.34;;;-141.90;38.19
5298;BME280;14738;42.668;23.250;2023-04-03T09:28:38;48374.41;;;-141.90;38.78
5298;BME280;14738;42.668;23.250;2023-04-03T09:31:23;48378.38;;;-141.90;38.45
5298;BME280;14738;42.668;23.250;2023-04-03T09:33:50;48386.34;;;-141.90;38.29
5298;BME280;14738;42.668;23.250;2023-04-03T09:39:16;48414.13;;;-141.90;37.72
5298;BME280;14738;42.668;23.250;2023-04-03T09:42:04;48324.78;;;-141.90;37.11
5298;BME280;14738;42.668;23.250;2023-04-03T09:44:34;48380.38;;;-141.90;37.03
5298;BME280;14738;42.668;23.250;2023-04-03T09:47:21;48364.50;;;-141.90;36.91
5298;BME280;14738;42.668;23.250;2023-04-03T09:49:48;48398.25;;;-141.90;37.33
5298;BME280;14738;42.668;23.250;2023-04-03T09:52:25;48388.31;;;-141.90;36.18
5298;BME280;14738;42.668;23.250;2023-04-03T09:54:50;48406.19;;;-141.90;36.32
5298;BME280;14738;42.668;23.250;2023-04-03T09:57:16;48380.38;;;-141.90;35.80
5298;BME280;14738;42.668;23.250;2023-04-03T10:00:00;48408.16;;;-141.90;36.18
5298;BME280;14738;42.668;23.250;2023-04-03T10:02:35;48394.28;;;-141.90;36.52
5298;BME280;14738;42.668;23.250;2023-04-03T10:05:03;48279.13;;;-141.90;36.69
5298;BME280;14738;42.668;23.250;2023-04-03T10:07:34;48402.22;;;-141.90;36.64
5298;BME280;14738;42.668;23.250;2023-04-03T10:10:20;48362.50;;;-141.90;36.98
5298;BME280;14738;42.668;23.250;2023-04-03T10:12:48;48394.28;;;-141.90;36.64
5298;BME280;14738;42.668;23.250;2023-04-03T10:15:16;48354.56;;;-141.90;36.63
5298;BME280;14738;42.668;23.250;2023-04-03T10:17:53;48410.16;;;-141.90;36.95
5298;BME280;14738;42.668;23.250;2023-04-03T10:25:46;48408.16;;;-141.90;37.30
5298;BME280;14738;42.668;23.250;2023-04-03T10:28:17;48404.19;;;-141.90;36.80
5298;BME280;14738;42.668;23.250;2023-04-03T10:34:21;48398.25;;;-141.90;36.87
5298;BME280;14738;42.668;23.250;2023-04-03T10:42:05;48370.44;;;-141.90;36.78
5298;BME280;14738;42.668;23.250;2023-04-03T10:47:24;48390.31;;;-141.90;37.02
5298;BME280;14738;42.668;23.250;2023-04-03T10:52:47;48374.41;;;-141.90;37.58
5298;BME280;14738;42.668;23.250;2023-04-03T10:57:39;48380.38;;;-141.90;37.73
5298;BME280;14738;42.668;23.250;2023-04-03T11:00:20;48382.34;;;-141.90;37.81
5298;BME280;14738;42.668;23.250;2023-04-03T11:02:57;48394.28;;;-141.90;37.76
5298;BME280;14738;42.668;23.250;2023-04-03T11:05:43;48394.28;;;-141.90;38.63
5298;BME280;14738;42.668;23.250;2023-04-03T11:11:02;48386.34;;;-141.90;39.25
5298;BME280;14738;42.668;23.250;2023-04-03T11:13:35;48394.28;;;-141.90;40.72
5298;BME280;14738;42.668;23.250;2023-04-03T11:16:03;48394.28;;;-141.90;41.34
5298;BME280;14738;42.668;23.250;2023-04-03T11:18:53;48378.38;;;-141.90;43.20
5298;BME280;14738;42.668;23.250;2023-04-03T11:21:25;48366.47;;;-141.90;44.09
5298;BME280;14738;42.668;23.250;2023-04-03T11:23:53;48390.31;;;-141.90;45.48
5298;BME280;14738;42.668;23.250;2023-04-03T11:26:26;48378.38;;;-141.90;46.09
5298;BME280;14738;42.668;23.250;2023-04-03T11:28:57;48390.31;;;-141.90;46.79
5298;BME280;14738;42.668;23.250;2023-04-03T11:36:55;48412.13;;;-141.90;50.77
5298;BME280;14738;42.668;23.250;2023-04-03T11:39:29;48418.09;;;-141.90;51.87
5298;BME280;14738;42.668;23.250;2023-04-03T11:41:55;48390.31;;;-141.90;52.52
5298;BME280;14738;42.668;23.250;2023-04-03T11:44:38;48390.31;;;-141.90;53.96
5298;BME280;14738;42.668;23.250;2023-04-03T11:47:10;48342.66;;;-141.90;56.07
5298;BME280;14738;42.668;23.250;2023-04-03T12:16:29;48410.16;;;-141.90;100.00
5298;BME280;14738;42.668;23.250;2023-04-03T12:32:56;48404.19;;;-141.90;100.00
5298;BME280;14738;42.668;23.250;2023-04-03T12:35:47;48408.16;;;-141.90;100.00
5298;BME280;14738;42.668;23.250;2023-04-03T12:41:23;48414.13;;;-141.90;100.00
5298;BME280;14738;42.668;23.250;2023-04-03T12:46:38;48426.03;;;-141.90;100.00
5298;BME280;14738;42.668;23.250;2023-04-03T12:49:18;48418.09;;;-141.90;100.00
5298;BME280;14738;42.668;23.250;2023-04-03T12:51:47;48366.47;;;-141.90;100.00
5298;BME280;14738;42.668;23.250;2023-04-03T12:54:17;48408.16;;;-141.90;100.00
5298;BME280;14738;42.668;23.250;2023-04-03T12:56:43;48418.09;;;-141.90;100.00
5298;BME280;14738;42.668;23.250;2023-04-03T12:59:20;48398.25;;;-141.90;100.00
5298;BME280;14738;42.668;23.250;2023-04-03T13:01:57;48404.19;;;-141.90;100.00
5298;BME280;14738;42.668;23.250;2023-04-03T13:04:24;48410.16;;;-141.90;100.00
5298;BME280;14738;42.668;23.250;2023-04-03T13:06:50;48422.06;;;-141.90;100.00
5298;BME280;14738;42.668;23.250;2023-04-03T13:09:28;48412.13;;;-141.90;100.00
5298;BME280;14738;42.668;23.250;2023-04-03T13:12:03;48445.88;;;-141.90;100.00
5298;BME280;14738;42.668;23.250;2023-04-03T13:14:29;48390.31;;;-141.90;100.00
5298;BME280;14738;42.668;23.250;2023-04-03T13:17:10;48414.13;;;-141.90;100.00
5298;BME280;14738;42.668;23.250;2023-04-03T13:19:37;48418.09;;;-141.90;100.00
5298;BME280;14738;42.668;23.250;2023-04-03T13:22:15;48443.91;;;-141.90;100.00
5298;BME280;14738;42.668;23.250;2023-04-03T13:24:45;48445.88;;;-141.90;100.00
5298;BME280;14738;42.668;23.250;2023-04-03T13:27:12;48437.94;;;-141.90;100.00
5298;BME280;14738;42.668;23.250;2023-04-03T13:29:38;48451.84;;;-141.90;100.00
5298;BME280;14738;42.668;23.250;2023-04-03T13:32:05;48392.28;;;-141.90;100.00
5298;BME280;14738;42.668;23.250;2023-04-03T13:34:41;48426.03;;;-141.90;100.00
5298;BME280;14738;42.668;23.250;2023-04-03T13:37:20;48364.50;;;-141.90;100.00
5298;BME280;14738;42.668;23.250;2023-04-03T13:39:57;48418.09;;;-141.90;100.00
5298;BME280;14738;42.668;23.250;2023-04-03T13:42:25;48410.16;;;-141.90;100.00
5298;BME280;14738;42.668;23.250;2023-04-03T13:45:32;48416.09;;;-141.90;100.00
5298;BME280;14738;42.668;23.250;2023-04-03T13:48:10;48418.09;;;-141.90;100.00
5298;BME280;14738;42.668;23.250;2023-04-03T13:50:56;48432.00;;;-141.90;100.00
5298;BME280;14738;42.668;23.250;2023-04-03T13:53:23;48433.97;;;-141.90;100.00
5298;BME280;14738;42.668;23.250;2023-04-03T13:56:07;48388.31;;;-141.90;100.00
5298;BME280;14738;42.668;23.250;2023-04-03T13:58:34;48428.03;;;-141.90;100.00
5298;BME280;14738;42.668;23.250;2023-04-03T14:01:17;48449.84;;;-141.90;100.00
5298;BME280;14738;42.668;23.250;2023-04-03T14:03:47;48437.94;;;-141.90;100.00
5298;BME280;14738;42.668;23.250;2023-04-03T14:06:15;48426.03;;;-141.90;100.00
5298;BME280;14738;42.668;23.250;2023-04-03T14:08:42;48428.03;;;-141.90;100.00
5298;BME280;14738;42.668;23.250;2023-04-03T14:11:34;48441.91;;;-141.90;100.00
5298;BME280;14738;42.668;23.250;2023-04-03T14:14:04;48437.94;;;-141.90;100.00
5298;BME280;14738;42.668;23.250;2023-04-03T14:16:33;48410.16;;;-141.90;100.00
5298;BME280;14738;42.668;23.250;2023-04-03T14:19:03;48430.00;;;-141.90;100.00